sensor_id;sensor_type;location;lat;lon;timestamp;pressure;altitude;pressure_sealevel;temperature;humidity
32197;BME280;18697;42.770;23.400;2023-02-19T00:02:03;95920.81;;;10.94;51.23
32197;BME280;18697;42.770;23.400;2023-02-19T00:04:29;95904.34;;;9.75;51.69
32197;BME280;18697;42.770;23.400;2023-02-19T00:06:54;95897.13;;;9.34;53.78
32197;BME280;18697;42.770;23.400;2023-02-19T00:09:19;95915.53;;;9.63;54.34
32197;BME280;18697;42.770;23.400;2023-02-19T00:11:45;95911.50;;;10.07;52.51
32197;BME280;18697;42.770;23.400;2023-02-19T00:14:16;95917.22;;;10.35;54.21
32197;BME280;18697;42.770;23.400;2023-02-19T00:16:42;95915.53;;;9.63;51.49
32197;BME280;18697;42.770;23.400;2023-02-19T00:19:09;95888.91;;;9.65;51.37
32197;BME280;18697;42.770;23.400;2023-02-19T00:21:35;95893.56;;;10.21;54.56
32197;BME280;18697;42.770;23.400;2023-02-19T00:24:02;95890.25;;;10.44;53.52
32197;BME280;18697;42.770;23.400;2023-02-19T00:26:28;95884.28;;;10.55;52.87
32197;BME280;18697;42.770;23.400;2023-02-19T00:28:54;95886.28;;;10.54;52.25
32197;BME280;18697;42.770;23.400;2023-02-19T00:31:22;95884.31;;;10.64;52.24
32197;BME280;18697;42.770;23.400;2023-02-19T00:33:48;95881.03;;;11.42;49.09
32197;BME280;18697;42.770;23.400;2023-02-19T00:36:14;95892.91;;;11.06;51.34
32197;BME280;18697;42.770;23.400;2023-02-19T00:38:40;95883.25;;;10.71;51.20
32197;BME280;18697;42.770;23.400;2023-02-19T00:41:06;95865.47;;;10.59;51.81
32197;BME280;18697;42.770;23.400;2023-02-19T00:43:47;95864.53;;;10.53;50.20
32197;BME280;18697;42.770;23.400;2023-02-19T00:46:13;95872.94;;;10.31;52.87
32197;BME280;18697;42.770;23.400;2023-02-19T00:48:39;95864.03;;;9.83;50.03
32197;BME280;18697;42.770;23.400;2023-02-19T00:51:04;95860.94;;;9.16;51.70
32197;BME280;18697;42.770;23.400;2023-02-19T00:53:29;95872.13;;;10.71;52.64
32197;BME280;18697;42.770;23.400;2023-02-19T00:55:54;95867.31;;;10.62;50.05
32197;BME280;18697;42.770;23.400;2023-02-19T00:58:20;95871.28;;;11.19;49.25
32197;BME280;18697;42.770;23.400;2023-02-19T01:00:45;95883.66;;;11.73;49.43
32197;BME280;18697;42.770;23.400;2023-02-19T01:03:10;95881.16;;;11.20;46.69
32197;BME280;18697;42.770;23.400;2023-02-19T01:05:36;95871.44;;;11.25;50.10
32197;BME280;18697;42.770;23.400;2023-02-19T01:08:01;95868.63;;;10.79;51.59
32197;BME280;18697;42.770;23.400;2023-02-19T01:10:26;95855.09;;;11.09;50.35
32197;BME280;18697;42.770;23.400;2023-02-19T01:12:51;95848.56;;;11.30;47.88
32197;BME280;18697;42.770;23.400;2023-02-19T01:15:17;95844.72;;;11.55;49.91
32197;BME280;18697;42.770;23.400;2023-02-19T01:17:42;95848.25;;;11.74;46.65
32197;BME280;18697;42.770;23.400;2023-02-19T01:20:07;95846.00;;;12.14;47.06
32197;BME280;18697;42.770;23.400;2023-02-19T01:22:33;95837.63;;;12.80;47.16
32197;BME280;18697;42.770;23.400;2023-02-19T01:24:58;95844.38;;;13.12;45.21
32197;BME280;18697;42.770;23.400;2023-02-19T01:27:23;95839.75;;;13.09;45.76
32197;BME280;18697;42.770;23.400;2023-02-19T01:29:48;95841.22;;;13.43;44.31
32197;BME280;18697;42.770;23.400;2023-02-19T01:32:14;95843.59;;;13.21;44.50
32197;BME280;18697;42.770;23.400;2023-02-19T01:34:39;95851.13;;;13.30;42.60
32197;BME280;18697;42.770;23.400;2023-02-19T01:37:04;95861.38;;;13.77;43.93
32197;BME280;18697;42.770;23.400;2023-02-19T01:39:32;95865.81;;;13.69;42.42
32197;BME280;18697;42.770;23.400;2023-02-19T01:41:57;95876.69;;;13.67;43.32
32197;BME280;18697;42.770;23.400;2023-02-19T01:46:47;95881.34;;;12.41;45.33
32197;BME280;18697;42.770;23.400;2023-02-19T01:49:31;95880.97;;;12.06;45.72
32197;BME280;18697;42.770;23.400;2023-02-19T01:52:04;95882.03;;;12.09;47.56
32197;BME280;18697;42.770;23.400;2023-02-19T01:54:33;95868.88;;;12.18;47.54
32197;BME280;18697;42.770;23.400;2023-02-19T01:57:00;95877.94;;;11.77;46.56
32197;BME280;18697;42.770;23.400;2023-02-19T01:59:28;95870.94;;;11.91;48.10
32197;BME280;18697;42.770;23.400;2023-02-19T02:01:54;95874.06;;;11.65;48.09
32197;BME280;18697;42.770;23.400;2023-02-19T02:04:19;95868.97;;;11.82;49.05
32197;BME280;18697;42.770;23.400;2023-02-19T02:06:49;95874.53;;;11.45;48.48
32197;BME280;18697;42.770;23.400;2023-02-19T02:09:15;95863.41;;;11.18;49.34
32197;BME280;18697;42.770;23.400;2023-02-19T02:12:01;95854.47;;;11.05;52.19
32197;BME280;18697;42.770;23.400;2023-02-19T02:14:27;95878.53;;;10.99;50.78
32197;BME280;18697;42.770;23.400;2023-02-19T02:16:54;95876.34;;;10.84;50.63
32197;BME280;18697;42.770;23.400;2023-02-19T02:32:26;95865.47;;;12.14;47.97
32197;BME280;18697;42.770;23.400;2023-02-19T02:34:59;95875.47;;;11.88;45.43
32197;BME280;18697;42.770;23.400;2023-02-19T02:37:25;95884.06;;;9.57;48.61
32197;BME280;18697;42.770;23.400;2023-02-19T02:39:52;95881.00;;;8.85;51.62
32197;BME280;18697;42.770;23.400;2023-02-19T02:42:18;95881.03;;;8.73;54.66
32197;BME280;18697;42.770;23.400;2023-02-19T02:44:53;95896.44;;;8.61;56.22
32197;BME280;18697;42.770;23.400;2023-02-19T02:47:45;95892.13;;;8.60;55.71
32197;BME280;18697;42.770;23.400;2023-02-19T02:50:14;95903.53;;;8.49;54.97
32197;BME280;18697;42.770;23.400;2023-02-19T02:52:41;95909.84;;;8.63;57.26
32197;BME280;18697;42.770;23.400;2023-02-19T02:55:26;95899.25;;;9.30;56.40
32197;BME280;18697;42.770;23.400;2023-02-19T02:57:54;95897.13;;;9.34;55.84
32197;BME280;18697;42.770;23.400;2023-02-19T03:00:20;95896.16;;;9.72;54.24
32197;BME280;18697;42.770;23.400;2023-02-19T03:02:46;95897.38;;;11.04;51.25
32197;BME280;18697;42.770;23.400;2023-02-19T03:05:12;95901.09;;;11.01;50.64
32197;BME280;18697;42.770;23.400;2023-02-19T03:08:14;95898.03;;;9.97;49.77
32197;BME280;18697;42.770;23.400;2023-02-19T03:13:06;95904.53;;;9.81;54.09
32197;BME280;18697;42.770;23.400;2023-02-19T03:16:01;95913.38;;;9.88;53.07
32197;BME280;18697;42.770;23.400;2023-02-19T03:18:49;95914.38;;;9.51;52.93
32197;BME280;18697;42.770;23.400;2023-02-19T03:21:36;95918.00;;;10.13;50.70
32197;BME280;18697;42.770;23.400;2023-02-19T03:24:02;95931.06;;;10.26;52.87
32197;BME280;18697;42.770;23.400;2023-02-19T03:26:46;95924.81;;;10.43;52.52
32197;BME280;18697;42.770;23.400;2023-02-19T03:29:17;95928.25;;;10.97;50.44
32197;BME280;18697;42.770;23.400;2023-02-19T03:32:03;95930.84;;;10.91;47.77
32197;BME280;18697;42.770;23.400;2023-02-19T03:34:35;95938.34;;;9.67;50.05
32197;BME280;18697;42.770;23.400;2023-02-19T03:37:48;95936.94;;;9.28;52.58
32197;BME280;18697;42.770;23.400;2023-02-19T03:39:49;95936.94;;;10.06;53.23
32197;BME280;18697;42.770;23.400;2023-02-19T03:44:44;95942.41;;;10.18;52.42
32197;BME280;18697;42.770;23.400;2023-02-19T03:47:14;95940.22;;;10.44;51.75
32197;BME280;18697;42.770;23.400;2023-02-19T03:57:15;95951.09;;;11.01;49.14
32197;BME280;18697;42.770;23.400;2023-02-19T04:04:43;95943.25;;;12.78;46.50
32197;BME280;18697;42.770;23.400;2023-02-19T04:07:09;95940.91;;;13.19;45.56
32197;BME280;18697;42.770;23.400;2023-02-19T04:09:42;95947.09;;;13.62;44.20
32197;BME280;18697;42.770;23.400;2023-02-19T04:12:09;95952.34;;;13.45;43.82
32197;BME280;18697;42.770;23.400;2023-02-19T04:14:37;95944.41;;;11.66;46.07
32197;BME280;18697;42.770;23.400;2023-02-19T04:17:06;95944.69;;;12.13;47.96
32197;BME280;18697;42.770;23.400;2023-02-19T04:19:33;95948.22;;;12.74;46.73
32197;BME280;18697;42.770;23.400;2023-02-19T04:22:01;95946.19;;;13.17;45.83
32197;BME280;18697;42.770;23.400;2023-02-19T04:24:30;95946.94;;;13.41;44.52
32197;BME280;18697;42.770;23.400;2023-02-19T04:26:57;95950.84;;;13.82;44.03
32197;BME280;18697;42.770;23.400;2023-02-19T04:29:22;95942.31;;;14.01;43.41
32197;BME280;18697;42.770;23.400;2023-02-19T04:31:48;95956.84;;;14.05;43.21
32197;BME280;18697;42.770;23.400;2023-02-19T04:34:13;95959.75;;;14.10;43.08
32197;BME280;18697;42.770;23.400;2023-02-19T04:36:38;95960.19;;;13.94;42.83
32197;BME280;18697;42.770;23.400;2023-02-19T04:39:03;95961.28;;;13.73;43.19
32197;BME280;18697;42.770;23.400;2023-02-19T04:41:29;95962.84;;;13.50;43.60
32197;BME280;18697;42.770;23.400;2023-02-19T04:43:54;95966.88;;;13.49;43.40
32197;BME280;18697;42.770;23.400;2023-02-19T04:46:19;95964.13;;;13.25;44.00
32197;BME280;18697;42.770;23.400;2023-02-19T04:48:45;95961.63;;;12.85;45.30
32197;BME280;18697;42.770;23.400;2023-02-19T04:51:10;95979.03;;;12.71;46.04
32197;BME280;18697;42.770;23.400;2023-02-19T04:53:35;95971.88;;;12.79;45.65
32197;BME280;18697;42.770;23.400;2023-02-19T04:56:05;95975.16;;;13.10;45.63
32197;BME280;18697;42.770;23.400;2023-02-19T04:58:30;95966.47;;;13.41;44.48
32197;BME280;18697;42.770;23.400;2023-02-19T05:00:55;95975.38;;;13.55;44.09
32197;BME280;18697;42.770;23.400;2023-02-19T05:03:21;95972.59;;;13.55;44.17
32197;BME280;18697;42.770;23.400;2023-02-19T05:05:46;95975.56;;;13.75;43.74
32197;BME280;18697;42.770;23.400;2023-02-19T05:08:11;95979.34;;;13.87;43.68
32197;BME280;18697;42.770;23.400;2023-02-19T05:10:36;95982.78;;;13.81;43.81
32197;BME280;18697;42.770;23.400;2023-02-19T05:13:02;95987.97;;;13.74;43.77
32197;BME280;18697;42.770;23.400;2023-02-19T05:15:27;95987.97;;;13.26;44.30
32197;BME280;18697;42.770;23.400;2023-02-19T05:17:52;95989.34;;;12.46;45.32
32197;BME280;18697;42.770;23.400;2023-02-19T05:20:17;95995.22;;;12.48;46.35
32197;BME280;18697;42.770;23.400;2023-02-19T05:22:43;95993.53;;;12.33;46.36
32197;BME280;18697;42.770;23.400;2023-02-19T05:25:08;95999.94;;;12.66;46.50
32197;BME280;18697;42.770;23.400;2023-02-19T05:27:33;96002.34;;;12.92;45.64
32197;BME280;18697;42.770;23.400;2023-02-19T05:29:58;96007.19;;;12.73;45.11
32197;BME280;18697;42.770;23.400;2023-02-19T05:32:24;96002.69;;;12.84;45.92
32197;BME280;18697;42.770;23.400;2023-02-19T05:34:49;96011.22;;;12.72;46.14
32197;BME280;18697;42.770;23.400;2023-02-19T05:37:15;96009.84;;;12.67;45.84
32197;BME280;18697;42.770;23.400;2023-02-19T05:39:40;96008.72;;;12.13;47.05
32197;BME280;18697;42.770;23.400;2023-02-19T05:42:05;96013.97;;;12.30;47.51
32197;BME280;18697;42.770;23.400;2023-02-19T05:44:31;96014.28;;;12.23;46.94
32197;BME280;18697;42.770;23.400;2023-02-19T05:46:56;96023.72;;;12.07;46.75
32197;BME280;18697;42.770;23.400;2023-02-19T05:49:21;96024.66;;;12.04;46.34
32197;BME280;18697;42.770;23.400;2023-02-19T05:51:49;96030.66;;;11.16;47.80
32197;BME280;18697;42.770;23.400;2023-02-19T05:54:14;96024.75;;;10.65;50.08
32197;BME280;18697;42.770;23.400;2023-02-19T05:56:40;96031.09;;;10.44;50.67
32197;BME280;18697;42.770;23.400;2023-02-19T05:59:14;96032.91;;;10.91;52.12
32197;BME280;18697;42.770;23.400;2023-02-19T06:01:40;96033.63;;;11.90;49.71
32197;BME280;18697;42.770;23.400;2023-02-19T06:04:05;96029.44;;;11.94;49.30
32197;BME280;18697;42.770;23.400;2023-02-19T06:06:30;96035.59;;;12.62;48.08
32197;BME280;18697;42.770;23.400;2023-02-19T06:08:55;96035.47;;;12.29;47.34
32197;BME280;18697;42.770;23.400;2023-02-19T06:11:21;96040.91;;;12.05;47.89
32197;BME280;18697;42.770;23.400;2023-02-19T06:13:47;96043.22;;;12.34;47.65
32197;BME280;18697;42.770;23.400;2023-02-19T06:16:14;96041.50;;;12.37;48.72
32197;BME280;18697;42.770;23.400;2023-02-19T06:18:41;96045.75;;;12.74;46.58
32197;BME280;18697;42.770;23.400;2023-02-19T06:21:07;96044.69;;;13.23;47.90
32197;BME280;18697;42.770;23.400;2023-02-19T06:23:33;96041.13;;;13.23;46.78
32197;BME280;18697;42.770;23.400;2023-02-19T06:26:08;96045.66;;;14.98;44.21
32197;BME280;18697;42.770;23.400;2023-02-19T06:28:34;96042.78;;;15.57;42.39
32197;BME280;18697;42.770;23.400;2023-02-19T06:30:59;96043.16;;;16.26;41.32
32197;BME280;18697;42.770;23.400;2023-02-19T06:33:25;96052.25;;;17.19;39.49
32197;BME280;18697;42.770;23.400;2023-02-19T06:35:50;96056.53;;;17.14;38.30
32197;BME280;18697;42.770;23.400;2023-02-19T06:38:15;96051.41;;;16.81;39.67
32197;BME280;18697;42.770;23.400;2023-02-19T06:40:41;96055.25;;;16.37;40.67
32197;BME280;18697;42.770;23.400;2023-02-19T06:43:06;96053.06;;;16.93;40.15
32197;BME280;18697;42.770;23.400;2023-02-19T06:45:32;96049.44;;;17.50;38.69
32197;BME280;18697;42.770;23.400;2023-02-19T06:47:58;96059.94;;;16.92;39.63
32197;BME280;18697;42.770;23.400;2023-02-19T06:50:23;96064.63;;;16.75;39.89
32197;BME280;18697;42.770;23.400;2023-02-19T06:52:48;96059.97;;;16.26;40.62
32197;BME280;18697;42.770;23.400;2023-02-19T06:55:13;96065.25;;;16.18;39.84
32197;BME280;18697;42.770;23.400;2023-02-19T06:57:39;96060.13;;;16.17;43.31
32197;BME280;18697;42.770;23.400;2023-02-19T07:00:04;96070.34;;;16.20;41.10
32197;BME280;18697;42.770;23.400;2023-02-19T07:02:29;96065.75;;;16.42;44.01
32197;BME280;18697;42.770;23.400;2023-02-19T07:04:54;96067.91;;;16.73;41.50
32197;BME280;18697;42.770;23.400;2023-02-19T07:07:20;96068.72;;;17.37;41.37
32197;BME280;18697;42.770;23.400;2023-02-19T07:09:45;96066.19;;;17.70;39.55
32197;BME280;18697;42.770;23.400;2023-02-19T07:12:10;96065.19;;;17.42;39.46
32197;BME280;18697;42.770;23.400;2023-02-19T07:14:36;96065.44;;;17.38;41.60
32197;BME280;18697;42.770;23.400;2023-02-19T07:17:01;96060.53;;;17.33;40.25
32197;BME280;18697;42.770;23.400;2023-02-19T07:19:27;96058.66;;;17.56;39.00
32197;BME280;18697;42.770;23.400;2023-02-19T07:21:52;96051.75;;;17.52;38.12
32197;BME280;18697;42.770;23.400;2023-02-19T07:24:17;96055.09;;;17.24;38.08
32197;BME280;18697;42.770;23.400;2023-02-19T07:26:45;96046.59;;;17.13;39.47
32197;BME280;18697;42.770;23.400;2023-02-19T07:29:10;96046.28;;;17.37;38.84
32197;BME280;18697;42.770;23.400;2023-02-19T07:31:35;96043.50;;;17.42;40.27
32197;BME280;18697;42.770;23.400;2023-02-19T07:34:01;96030.66;;;17.30;40.57
32197;BME280;18697;42.770;23.400;2023-02-19T07:36:26;96042.03;;;17.53;38.72
32197;BME280;18697;42.770;23.400;2023-02-19T07:38:52;96041.91;;;17.36;40.32
32197;BME280;18697;42.770;23.400;2023-02-19T07:41:19;96024.81;;;17.34;41.34
32197;BME280;18697;42.770;23.400;2023-02-19T07:43:44;96034.53;;;17.01;39.57
32197;BME280;18697;42.770;23.400;2023-02-19T07:46:10;96038.16;;;17.07;40.45
32197;BME280;18697;42.770;23.400;2023-02-19T07:48:36;96033.16;;;16.91;39.96
32197;BME280;18697;42.770;23.400;2023-02-19T07:51:02;96023.47;;;16.92;41.40
32197;BME280;18697;42.770;23.400;2023-02-19T07:53:27;96030.63;;;16.93;40.34
32197;BME280;18697;42.770;23.400;2023-02-19T07:55:57;96038.22;;;16.87;40.04
32197;BME280;18697;42.770;23.400;2023-02-19T07:58:22;96029.56;;;17.22;41.29
32197;BME280;18697;42.770;23.400;2023-02-19T08:00:47;96030.00;;;17.47;40.27
32197;BME280;18697;42.770;23.400;2023-02-19T08:03:13;96035.63;;;17.15;40.12
32197;BME280;18697;42.770;23.400;2023-02-19T08:05:39;96034.09;;;17.14;39.71
32197;BME280;18697;42.770;23.400;2023-02-19T08:08:05;96038.88;;;17.02;40.21
32197;BME280;18697;42.770;23.400;2023-02-19T08:10:30;96033.53;;;17.04;39.63
32197;BME280;18697;42.770;23.400;2023-02-19T08:13:15;96034.88;;;16.83;40.60
32197;BME280;18697;42.770;23.400;2023-02-19T08:15:43;96037.78;;;16.68;39.69
32197;BME280;18697;42.770;23.400;2023-02-19T08:18:09;96034.75;;;16.72;39.69
32197;BME280;18697;42.770;23.400;2023-02-19T08:20:34;96033.81;;;16.81;39.66
32197;BME280;18697;42.770;23.400;2023-02-19T08:22:59;96024.09;;;16.76;40.08
32197;BME280;18697;42.770;23.400;2023-02-19T08:25:25;96031.91;;;16.66;39.60
32197;BME280;18697;42.770;23.400;2023-02-19T08:27:50;96033.56;;;16.58;39.21
32197;BME280;18697;42.770;23.400;2023-02-19T08:30:15;96027.06;;;16.47;39.84
32197;BME280;18697;42.770;23.400;2023-02-19T08:32:40;96029.22;;;16.31;40.19
32197;BME280;18697;42.770;23.400;2023-02-19T08:35:06;96030.69;;;16.53;39.49
32197;BME280;18697;42.770;23.400;2023-02-19T08:37:31;96024.81;;;16.25;39.67
32197;BME280;18697;42.770;23.400;2023-02-19T08:39:56;96018.66;;;16.00;40.37
32197;BME280;18697;42.770;23.400;2023-02-19T08:42:22;96021.19;;;15.98;40.67
32197;BME280;18697;42.770;23.400;2023-02-19T08:44:47;96017.75;;;15.89;40.20
32197;BME280;18697;42.770;23.400;2023-02-19T08:47:12;96015.22;;;15.91;40.67
32197;BME280;18697;42.770;23.400;2023-02-19T08:49:38;96017.53;;;15.92;40.56
32197;BME280;18697;42.770;23.400;2023-02-19T08:52:04;96012.22;;;15.94;40.54
32197;BME280;18697;42.770;23.400;2023-02-19T08:54:29;96012.91;;;16.30;40.13
32197;BME280;18697;42.770;23.400;2023-02-19T08:56:54;96009.81;;;16.54;39.66
32197;BME280;18697;42.770;23.400;2023-02-19T08:59:20;96007.63;;;16.63;40.01
32197;BME280;18697;42.770;23.400;2023-02-19T09:01:45;96005.66;;;16.95;39.82
32197;BME280;18697;42.770;23.400;2023-02-19T09:04:11;96004.16;;;17.00;38.75
32197;BME280;18697;42.770;23.400;2023-02-19T09:06:36;96001.91;;;17.09;38.44
32197;BME280;18697;42.770;23.400;2023-02-19T09:09:01;95999.41;;;17.17;38.08
32197;BME280;18697;42.770;23.400;2023-02-19T09:11:27;95987.59;;;17.39;38.50
32197;BME280;18697;42.770;23.400;2023-02-19T09:13:54;95986.13;;;17.49;38.41
32197;BME280;18697;42.770;23.400;2023-02-19T09:16:19;95973.66;;;17.56;37.50
32197;BME280;18697;42.770;23.400;2023-02-19T09:18:44;95969.03;;;17.53;37.40
32197;BME280;18697;42.770;23.400;2023-02-19T09:21:09;95963.81;;;17.77;37.46
32197;BME280;18697;42.770;23.400;2023-02-19T09:23:35;95970.94;;;17.67;37.56
32197;BME280;18697;42.770;23.400;2023-02-19T09:26:01;95960.00;;;17.80;36.93
32197;BME280;18697;42.770;23.400;2023-02-19T09:28:30;95972.84;;;17.98;37.11
32197;BME280;18697;42.770;23.400;2023-02-19T09:30:55;95971.28;;;17.91;37.07
32197;BME280;18697;42.770;23.400;2023-02-19T09:33:21;95970.00;;;17.92;37.63
32197;BME280;18697;42.770;23.400;2023-02-19T09:35:46;95963.31;;;17.84;37.48
32197;BME280;18697;42.770;23.400;2023-02-19T09:38:11;95956.25;;;18.05;38.81
32197;BME280;18697;42.770;23.400;2023-02-19T09:40:37;95955.25;;;18.14;38.55
32197;BME280;18697;42.770;23.400;2023-02-19T09:43:08;95960.13;;;18.14;38.42
32197;BME280;18697;42.770;23.400;2023-02-19T09:45:37;95951.19;;;18.21;38.02
32197;BME280;18697;42.770;23.400;2023-02-19T09:48:04;95959.88;;;18.17;37.79
32197;BME280;18697;42.770;23.400;2023-02-19T09:52:50;95944.03;;;18.20;38.40
32197;BME280;18697;42.770;23.400;2023-02-19T09:55:35;95944.06;;;18.31;38.52
32197;BME280;18697;42.770;23.400;2023-02-19T10:00:38;95929.72;;;18.18;39.00
32197;BME280;18697;42.770;23.400;2023-02-19T10:03:13;95922.78;;;18.02;38.61
32197;BME280;18697;42.770;23.400;2023-02-19T10:05:42;95904.84;;;17.88;39.09
32197;BME280;18697;42.770;23.400;2023-02-19T10:08:13;95905.13;;;17.96;39.93
32197;BME280;18697;42.770;23.400;2023-02-19T10:10:39;95907.94;;;18.01;39.91
32197;BME280;18697;42.770;23.400;2023-02-19T10:13:18;95896.22;;;18.09;39.26
32197;BME280;18697;42.770;23.400;2023-02-19T10:18:11;95895.03;;;18.54;38.31
32197;BME280;18697;42.770;23.400;2023-02-19T10:20:37;95880.44;;;18.50;38.53
32197;BME280;18697;42.770;23.400;2023-02-19T10:23:05;95870.47;;;18.66;38.42
32197;BME280;18697;42.770;23.400;2023-02-19T10:25:32;95874.06;;;18.72;38.25
32197;BME280;18697;42.770;23.400;2023-02-19T10:27:59;95874.03;;;18.89;37.73
32197;BME280;18697;42.770;23.400;2023-02-19T10:30:29;95875.56;;;19.07;37.43
32197;BME280;18697;42.770;23.400;2023-02-19T10:35:34;95854.03;;;19.20;37.58
32197;BME280;18697;42.770;23.400;2023-02-19T10:38:00;95855.94;;;19.59;36.59
32197;BME280;18697;42.770;23.400;2023-02-19T10:40:27;95845.72;;;19.56;36.02
32197;BME280;18697;42.770;23.400;2023-02-19T10:43:01;95845.88;;;19.75;35.14
32197;BME280;18697;42.770;23.400;2023-02-19T10:45:38;95833.22;;;19.98;35.23
32197;BME280;18697;42.770;23.400;2023-02-19T10:48:06;95828.72;;;20.14;35.06
32197;BME280;18697;42.770;23.400;2023-02-19T10:50:41;95823.88;;;20.09;35.10
32197;BME280;18697;42.770;23.400;2023-02-19T10:53:20;95806.84;;;19.95;35.40
32197;BME280;18697;42.770;23.400;2023-02-19T10:56:14;95813.22;;;20.31;35.47
32197;BME280;18697;42.770;23.400;2023-02-19T10:58:42;95806.50;;;20.40;35.05
32197;BME280;18697;42.770;23.400;2023-02-19T11:03:39;95801.25;;;20.20;34.89
32197;BME280;18697;42.770;23.400;2023-02-19T11:06:07;95792.44;;;20.34;34.94
32197;BME280;18697;42.770;23.400;2023-02-19T11:08:59;95791.16;;;20.65;34.49
32197;BME280;18697;42.770;23.400;2023-02-19T11:11:48;95784.00;;;20.64;34.99
32197;BME280;18697;42.770;23.400;2023-02-19T11:14:15;95775.00;;;20.66;34.83
32197;BME280;18697;42.770;23.400;2023-02-19T11:16:46;95770.09;;;20.37;34.29
32197;BME280;18697;42.770;23.400;2023-02-19T11:19:23;95767.81;;;20.35;34.93
32197;BME280;18697;42.770;23.400;2023-02-19T11:21:48;95767.50;;;20.09;33.96
32197;BME280;18697;42.770;23.400;2023-02-19T11:24:46;95767.19;;;19.82;34.54
32197;BME280;18697;42.770;23.400;2023-02-19T11:27:18;95752.56;;;19.89;34.90
32197;BME280;18697;42.770;23.400;2023-02-19T11:29:44;95750.03;;;19.80;34.86
32197;BME280;18697;42.770;23.400;2023-02-19T11:34:45;95739.38;;;20.33;34.88
32197;BME280;18697;42.770;23.400;2023-02-19T11:37:21;95734.97;;;20.38;34.33
32197;BME280;18697;42.770;23.400;2023-02-19T11:39:49;95726.59;;;20.56;34.76
32197;BME280;18697;42.770;23.400;2023-02-19T11:55:20;95724.22;;;20.85;33.31
32197;BME280;18697;42.770;23.400;2023-02-19T11:58:14;95715.88;;;20.98;32.57
32197;BME280;18697;42.770;23.400;2023-02-19T12:09:49;95687.34;;;21.77;30.78
32197;BME280;18697;42.770;23.400;2023-02-19T12:18:23;95665.75;;;21.60;31.45
32197;BME280;18697;42.770;23.400;2023-02-19T12:23:52;95664.00;;;21.57;31.06
32197;BME280;18697;42.770;23.400;2023-02-19T12:26:34;95658.00;;;21.48;31.05
32197;BME280;18697;42.770;23.400;2023-02-19T12:29:38;95650.22;;;21.35;30.43
32197;BME280;18697;42.770;23.400;2023-02-19T12:37:50;95633.88;;;21.47;31.11
32197;BME280;18697;42.770;23.400;2023-02-19T12:40:32;95634.88;;;21.62;30.68
32197;BME280;18697;42.770;23.400;2023-02-19T12:43:10;95623.09;;;21.77;30.82
32197;BME280;18697;42.770;23.400;2023-02-19T12:45:59;95612.75;;;21.80;30.53
32197;BME280;18697;42.770;23.400;2023-02-19T12:54:11;95593.50;;;22.10;30.56
32197;BME280;18697;42.770;23.400;2023-02-19T12:56:54;95592.09;;;22.17;30.49
32197;BME280;18697;42.770;23.400;2023-02-19T12:59:35;95590.34;;;22.40;30.38
32197;BME280;18697;42.770;23.400;2023-02-19T13:02:22;95583.38;;;22.41;29.75
32197;BME280;18697;42.770;23.400;2023-02-19T13:05:07;95580.97;;;22.58;29.38
32197;BME280;18697;42.770;23.400;2023-02-19T13:07:59;95576.41;;;22.82;29.11
32197;BME280;18697;42.770;23.400;2023-02-19T13:10:50;95573.66;;;22.76;29.50
32197;BME280;18697;42.770;23.400;2023-02-19T13:13:25;95573.47;;;22.87;29.13
32197;BME280;18697;42.770;23.400;2023-02-19T13:15:56;95576.63;;;22.71;28.70
32197;BME280;18697;42.770;23.400;2023-02-19T13:18:31;95555.50;;;22.72;29.41
32197;BME280;18697;42.770;23.400;2023-02-19T13:20:58;95552.13;;;22.86;30.13
32197;BME280;18697;42.770;23.400;2023-02-19T13:23:30;95544.28;;;22.79;29.55
32197;BME280;18697;42.770;23.400;2023-02-19T13:26:27;95553.22;;;22.70;29.04
32197;BME280;18697;42.770;23.400;2023-02-19T13:29:26;95554.19;;;22.86;29.01
32197;BME280;18697;42.770;23.400;2023-02-19T13:34:59;95535.03;;;22.66;29.18
32197;BME280;18697;42.770;23.400;2023-02-19T13:37:31;95526.13;;;22.61;28.81
32197;BME280;18697;42.770;23.400;2023-02-19T13:40:15;95529.59;;;22.68;29.33
32197;BME280;18697;42.770;23.400;2023-02-19T13:42:51;95520.88;;;22.79;28.91
32197;BME280;18697;42.770;23.400;2023-02-19T13:45:43;95523.72;;;22.79;28.94
32197;BME280;18697;42.770;23.400;2023-02-19T13:50:49;95514.34;;;22.71;29.64
32197;BME280;18697;42.770;23.400;2023-02-19T14:32:46;95461.78;;;22.15;31.13
32197;BME280;18697;42.770;23.400;2023-02-19T14:35:19;95465.16;;;22.13;31.44
32197;BME280;18697;42.770;23.400;2023-02-19T14:37:47;95451.88;;;22.08;31.32
32197;BME280;18697;42.770;23.400;2023-02-19T14:40:29;95451.44;;;22.04;30.83
32197;BME280;18697;42.770;23.400;2023-02-19T14:42:58;95447.09;;;22.03;32.25
32197;BME280;18697;42.770;23.400;2023-02-19T14:45:26;95446.97;;;21.95;30.60
32197;BME280;18697;42.770;23.400;2023-02-19T14:47:55;95432.63;;;21.93;32.27
32197;BME280;18697;42.770;23.400;2023-02-19T14:50:28;95437.63;;;21.87;30.73
32197;BME280;18697;42.770;23.400;2023-02-19T14:52:57;95442.84;;;21.83;30.93
32197;BME280;18697;42.770;23.400;2023-02-19T14:55:28;95436.75;;;21.66;30.84
32197;BME280;18697;42.770;23.400;2023-02-19T14:57:55;95424.34;;;21.43;31.71
32197;BME280;18697;42.770;23.400;2023-02-19T15:02:52;95427.91;;;21.30;32.56
32197;BME280;18697;42.770;23.400;2023-02-19T15:05:25;95421.88;;;21.20;32.08
32197;BME280;18697;42.770;23.400;2023-02-19T15:07:52;95418.94;;;21.13;33.71
32197;BME280;18697;42.770;23.400;2023-02-19T15:10:18;95417.72;;;21.08;32.63
32197;BME280;18697;42.770;23.400;2023-02-19T15:12:50;95407.00;;;21.20;32.93
32197;BME280;18697;42.770;23.400;2023-02-19T15:15:22;95407.19;;;21.09;32.78
32197;BME280;18697;42.770;23.400;2023-02-19T15:17:50;95408.28;;;21.06;32.64
32197;BME280;18697;42.770;23.400;2023-02-19T15:20:22;95412.63;;;21.07;33.69